Terminal Aerodrome Forecast
Issued by NWS

Home | Current Version | Previous Version | Text Only | Print | Product List | Glossary On
Versions: 1 2 3 4 5 6 7 8 9 10 11 12 13 14 15 16 17 18 19 20 21
000
FTUS43 KDTX 181136
TAFMBS
TAF
KMBS 181136Z 1812/1912 29010KT P6SM OVC015
     FM190100 33005KT P6SM OVC020
     FM191000 33005KT P6SM SCT025=

USA.gov is the U.S. government's official web portal to all federal, state and local government web resources and services.